sensor_id;sensor_type;location;lat;lon;timestamp;P1;durP1;ratioP1;P2;durP2;ratioP2
13079;SDS011;6606;49.154;9.280;2023-03-12T00:00:01;11.10;;;5.90;;
13079;SDS011;6606;49.154;9.280;2023-03-12T00:02:48;11.00;;;6.30;;
13079;SDS011;6606;49.154;9.280;2023-03-12T00:05:30;11.83;;;6.00;;
13079;SDS011;6606;49.154;9.280;2023-03-12T00:08:11;11.83;;;5.90;;
13079;SDS011;6606;49.154;9.280;2023-03-12T00:10:54;10.27;;;6.07;;
13079;SDS011;6606;49.154;9.280;2023-03-12T00:13:35;9.93;;;6.20;;
13079;SDS011;6606;49.154;9.280;2023-03-12T00:16:19;10.13;;;6.50;;
13079;SDS011;6606;49.154;9.280;2023-03-12T00:19:02;13.47;;;6.67;;
13079;SDS011;6606;49.154;9.280;2023-03-12T00:21:43;9.67;;;6.40;;
13079;SDS011;6606;49.154;9.280;2023-03-12T00:24:25;11.70;;;6.60;;
13079;SDS011;6606;49.154;9.280;2023-03-12T00:27:07;10.87;;;6.03;;
13079;SDS011;6606;49.154;9.280;2023-03-12T00:29:48;13.73;;;8.10;;
13079;SDS011;6606;49.154;9.280;2023-03-12T00:32:32;12.03;;;7.43;;
13079;SDS011;6606;49.154;9.280;2023-03-12T00:35:15;11.73;;;7.53;;
13079;SDS011;6606;49.154;9.280;2023-03-12T00:37:56;13.43;;;7.67;;
13079;SDS011;6606;49.154;9.280;2023-03-12T00:40:38;11.23;;;7.30;;
13079;SDS011;6606;49.154;9.280;2023-03-12T00:43:20;11.37;;;6.97;;
13079;SDS011;6606;49.154;9.280;2023-03-12T00:46:02;9.97;;;6.37;;
13079;SDS011;6606;49.154;9.280;2023-03-12T00:48:47;11.83;;;6.83;;
13079;SDS011;6606;49.154;9.280;2023-03-12T00:51:29;9.67;;;6.20;;
13079;SDS011;6606;49.154;9.280;2023-03-12T00:54:11;9.90;;;6.30;;
13079;SDS011;6606;49.154;9.280;2023-03-12T00:56:52;13.33;;;6.63;;
13079;SDS011;6606;49.154;9.280;2023-03-12T00:59:34;10.03;;;6.47;;
13079;SDS011;6606;49.154;9.280;2023-03-12T01:02:19;8.47;;;5.37;;
13079;SDS011;6606;49.154;9.280;2023-03-12T01:05:02;10.57;;;6.53;;
13079;SDS011;6606;49.154;9.280;2023-03-12T01:07:45;12.20;;;6.33;;
13079;SDS011;6606;49.154;9.280;2023-03-12T01:10:27;10.87;;;5.67;;
13079;SDS011;6606;49.154;9.280;2023-03-12T01:13:10;11.57;;;6.63;;
13079;SDS011;6606;49.154;9.280;2023-03-12T01:15:52;13.20;;;6.00;;
13079;SDS011;6606;49.154;9.280;2023-03-12T01:18:34;14.40;;;6.97;;
13079;SDS011;6606;49.154;9.280;2023-03-12T01:21:17;13.53;;;6.57;;
13079;SDS011;6606;49.154;9.280;2023-03-12T01:23:58;11.70;;;6.60;;
13079;SDS011;6606;49.154;9.280;2023-03-12T01:26:40;10.53;;;6.63;;
13079;SDS011;6606;49.154;9.280;2023-03-12T01:29:22;11.00;;;6.70;;
13079;SDS011;6606;49.154;9.280;2023-03-12T01:32:04;9.67;;;6.10;;
13079;SDS011;6606;49.154;9.280;2023-03-12T01:34:46;11.00;;;6.27;;
13079;SDS011;6606;49.154;9.280;2023-03-12T01:37:30;9.87;;;5.97;;
13079;SDS011;6606;49.154;9.280;2023-03-12T01:40:13;11.17;;;6.33;;
13079;SDS011;6606;49.154;9.280;2023-03-12T01:42:56;13.97;;;7.23;;
13079;SDS011;6606;49.154;9.280;2023-03-12T01:48:43;10.97;;;5.80;;
13079;SDS011;6606;49.154;9.280;2023-03-12T01:51:29;8.87;;;5.73;;
13079;SDS011;6606;49.154;9.280;2023-03-12T01:54:16;10.93;;;6.07;;
13079;SDS011;6606;49.154;9.280;2023-03-12T01:57:01;9.10;;;5.60;;
13079;SDS011;6606;49.154;9.280;2023-03-12T01:59:47;9.00;;;6.17;;
13079;SDS011;6606;49.154;9.280;2023-03-12T02:02:32;11.57;;;5.70;;
13079;SDS011;6606;49.154;9.280;2023-03-12T02:05:17;11.90;;;4.97;;
13079;SDS011;6606;49.154;9.280;2023-03-12T02:08:02;8.63;;;5.03;;
13079;SDS011;6606;49.154;9.280;2023-03-12T02:10:46;8.93;;;4.73;;
13079;SDS011;6606;49.154;9.280;2023-03-12T02:13:29;7.43;;;4.20;;
13079;SDS011;6606;49.154;9.280;2023-03-12T02:16:11;9.40;;;4.40;;
13079;SDS011;6606;49.154;9.280;2023-03-12T02:18:54;6.63;;;4.00;;
13079;SDS011;6606;49.154;9.280;2023-03-12T02:21:37;8.20;;;4.50;;
13079;SDS011;6606;49.154;9.280;2023-03-12T02:24:23;6.80;;;4.67;;
13079;SDS011;6606;49.154;9.280;2023-03-12T02:27:12;9.07;;;4.20;;
13079;SDS011;6606;49.154;9.280;2023-03-12T02:29:55;9.13;;;4.70;;
13079;SDS011;6606;49.154;9.280;2023-03-12T02:32:37;6.33;;;4.17;;
13079;SDS011;6606;49.154;9.280;2023-03-12T02:35:22;9.10;;;4.20;;
13079;SDS011;6606;49.154;9.280;2023-03-12T02:41:14;6.03;;;3.70;;
13079;SDS011;6606;49.154;9.280;2023-03-12T02:44:01;4.97;;;3.50;;
13079;SDS011;6606;49.154;9.280;2023-03-12T02:46:48;4.80;;;3.47;;
13079;SDS011;6606;49.154;9.280;2023-03-12T02:49:33;8.27;;;5.80;;
13079;SDS011;6606;49.154;9.280;2023-03-12T02:52:15;12.07;;;6.20;;
13079;SDS011;6606;49.154;9.280;2023-03-12T02:54:56;9.10;;;5.17;;
13079;SDS011;6606;49.154;9.280;2023-03-12T02:57:39;8.30;;;5.47;;
13079;SDS011;6606;49.154;9.280;2023-03-12T03:00:26;7.80;;;5.00;;
13079;SDS011;6606;49.154;9.280;2023-03-12T03:03:11;11.27;;;5.43;;
13079;SDS011;6606;49.154;9.280;2023-03-12T03:05:53;9.70;;;5.73;;
13079;SDS011;6606;49.154;9.280;2023-03-12T03:08:35;10.80;;;6.40;;
13079;SDS011;6606;49.154;9.280;2023-03-12T03:11:17;10.93;;;6.40;;
13079;SDS011;6606;49.154;9.280;2023-03-12T03:14:03;11.53;;;6.53;;
13079;SDS011;6606;49.154;9.280;2023-03-12T03:16:48;12.60;;;6.67;;
13079;SDS011;6606;49.154;9.280;2023-03-12T03:19:30;11.30;;;6.07;;
13079;SDS011;6606;49.154;9.280;2023-03-12T03:22:11;7.67;;;5.27;;
13079;SDS011;6606;49.154;9.280;2023-03-12T03:24:53;11.63;;;5.93;;
13079;SDS011;6606;49.154;9.280;2023-03-12T03:27:35;12.47;;;6.50;;
13079;SDS011;6606;49.154;9.280;2023-03-12T03:30:17;9.13;;;5.90;;
13079;SDS011;6606;49.154;9.280;2023-03-12T03:33:04;9.00;;;5.53;;
13079;SDS011;6606;49.154;9.280;2023-03-12T03:35:46;9.07;;;5.10;;
13079;SDS011;6606;49.154;9.280;2023-03-12T03:38:29;9.87;;;5.00;;
13079;SDS011;6606;49.154;9.280;2023-03-12T03:41:12;10.80;;;5.57;;
13079;SDS011;6606;49.154;9.280;2023-03-12T03:43:57;9.17;;;5.13;;
13079;SDS011;6606;49.154;9.280;2023-03-12T03:46:39;11.17;;;5.73;;
13079;SDS011;6606;49.154;9.280;2023-03-12T03:49:25;8.03;;;5.60;;
13079;SDS011;6606;49.154;9.280;2023-03-12T03:52:07;8.17;;;4.97;;
13079;SDS011;6606;49.154;9.280;2023-03-12T03:54:50;13.20;;;6.10;;
13079;SDS011;6606;49.154;9.280;2023-03-12T03:57:32;11.17;;;5.37;;
13079;SDS011;6606;49.154;9.280;2023-03-12T04:00:14;9.50;;;5.73;;
13079;SDS011;6606;49.154;9.280;2023-03-12T04:02:59;11.87;;;6.17;;
13079;SDS011;6606;49.154;9.280;2023-03-12T04:05:43;11.67;;;6.20;;
13079;SDS011;6606;49.154;9.280;2023-03-12T04:08:26;8.33;;;5.47;;
13079;SDS011;6606;49.154;9.280;2023-03-12T04:11:09;10.53;;;5.40;;
13079;SDS011;6606;49.154;9.280;2023-03-12T04:13:54;8.97;;;5.10;;
13079;SDS011;6606;49.154;9.280;2023-03-12T04:16:38;8.13;;;5.70;;
13079;SDS011;6606;49.154;9.280;2023-03-12T04:19:20;12.50;;;6.03;;
13079;SDS011;6606;49.154;9.280;2023-03-12T04:22:04;11.80;;;5.50;;
13079;SDS011;6606;49.154;9.280;2023-03-12T04:24:46;9.03;;;5.70;;
13079;SDS011;6606;49.154;9.280;2023-03-12T04:27:28;9.57;;;5.10;;
13079;SDS011;6606;49.154;9.280;2023-03-12T04:30:10;9.17;;;5.67;;
13079;SDS011;6606;49.154;9.280;2023-03-12T04:32:53;10.43;;;6.37;;
13079;SDS011;6606;49.154;9.280;2023-03-12T04:35:35;8.50;;;5.63;;
13079;SDS011;6606;49.154;9.280;2023-03-12T04:38:20;10.57;;;5.47;;
13079;SDS011;6606;49.154;9.280;2023-03-12T04:41:04;9.03;;;5.40;;
13079;SDS011;6606;49.154;9.280;2023-03-12T04:43:49;7.87;;;4.57;;
13079;SDS011;6606;49.154;9.280;2023-03-12T04:46:32;8.90;;;4.60;;
13079;SDS011;6606;49.154;9.280;2023-03-12T04:49:14;7.33;;;4.57;;
13079;SDS011;6606;49.154;9.280;2023-03-12T04:51:57;7.33;;;5.47;;
13079;SDS011;6606;49.154;9.280;2023-03-12T04:54:40;9.83;;;5.07;;
13079;SDS011;6606;49.154;9.280;2023-03-12T04:57:25;10.17;;;5.20;;
13079;SDS011;6606;49.154;9.280;2023-03-12T05:00:08;9.47;;;5.53;;
13079;SDS011;6606;49.154;9.280;2023-03-12T05:02:53;9.13;;;5.97;;
13079;SDS011;6606;49.154;9.280;2023-03-12T05:05:36;7.83;;;4.90;;
13079;SDS011;6606;49.154;9.280;2023-03-12T05:08:18;7.97;;;5.13;;
13079;SDS011;6606;49.154;9.280;2023-03-12T05:11:01;7.93;;;4.90;;
13079;SDS011;6606;49.154;9.280;2023-03-12T05:13:44;7.27;;;4.80;;
13079;SDS011;6606;49.154;9.280;2023-03-12T05:16:29;10.43;;;6.77;;
13079;SDS011;6606;49.154;9.280;2023-03-12T05:19:13;10.67;;;7.07;;
13079;SDS011;6606;49.154;9.280;2023-03-12T05:21:56;11.60;;;6.47;;
13079;SDS011;6606;49.154;9.280;2023-03-12T05:24:38;10.33;;;5.70;;
13079;SDS011;6606;49.154;9.280;2023-03-12T05:27:22;10.27;;;6.20;;
13079;SDS011;6606;49.154;9.280;2023-03-12T05:30:06;8.90;;;5.90;;
13079;SDS011;6606;49.154;9.280;2023-03-12T05:32:50;10.57;;;6.30;;
13079;SDS011;6606;49.154;9.280;2023-03-12T05:35:32;10.17;;;6.10;;
13079;SDS011;6606;49.154;9.280;2023-03-12T05:38:14;9.37;;;5.83;;
13079;SDS011;6606;49.154;9.280;2023-03-12T05:40:57;9.27;;;5.47;;
13079;SDS011;6606;49.154;9.280;2023-03-12T05:43:43;9.57;;;5.50;;
13079;SDS011;6606;49.154;9.280;2023-03-12T05:46:25;10.43;;;5.90;;
13079;SDS011;6606;49.154;9.280;2023-03-12T05:49:08;10.13;;;6.13;;
13079;SDS011;6606;49.154;9.280;2023-03-12T05:51:51;12.03;;;5.40;;
13079;SDS011;6606;49.154;9.280;2023-03-12T05:54:35;9.70;;;5.13;;
13079;SDS011;6606;49.154;9.280;2023-03-12T05:57:19;11.00;;;6.23;;
13079;SDS011;6606;49.154;9.280;2023-03-12T06:00:05;10.10;;;6.27;;
13079;SDS011;6606;49.154;9.280;2023-03-12T06:02:53;10.33;;;6.00;;
13079;SDS011;6606;49.154;9.280;2023-03-12T06:05:35;12.13;;;5.17;;
13079;SDS011;6606;49.154;9.280;2023-03-12T06:08:17;7.87;;;4.80;;
13079;SDS011;6606;49.154;9.280;2023-03-12T06:10:59;10.17;;;5.50;;
13079;SDS011;6606;49.154;9.280;2023-03-12T06:13:42;9.43;;;5.03;;
13079;SDS011;6606;49.154;9.280;2023-03-12T06:16:26;8.17;;;5.20;;
13079;SDS011;6606;49.154;9.280;2023-03-12T06:19:10;8.40;;;4.67;;
13079;SDS011;6606;49.154;9.280;2023-03-12T06:21:53;9.33;;;5.03;;
13079;SDS011;6606;49.154;9.280;2023-03-12T06:24:35;10.40;;;4.50;;
13079;SDS011;6606;49.154;9.280;2023-03-12T06:27:19;10.40;;;5.30;;
13079;SDS011;6606;49.154;9.280;2023-03-12T06:30:02;7.07;;;4.97;;
13079;SDS011;6606;49.154;9.280;2023-03-12T06:32:45;8.50;;;4.60;;
13079;SDS011;6606;49.154;9.280;2023-03-12T06:35:27;11.10;;;5.80;;
13079;SDS011;6606;49.154;9.280;2023-03-12T06:38:09;9.27;;;5.50;;
13079;SDS011;6606;49.154;9.280;2023-03-12T06:40:55;10.80;;;6.60;;
13079;SDS011;6606;49.154;9.280;2023-03-12T06:43:38;15.37;;;9.37;;
13079;SDS011;6606;49.154;9.280;2023-03-12T06:46:20;12.70;;;8.87;;
13079;SDS011;6606;49.154;9.280;2023-03-12T06:49:05;12.33;;;7.50;;
13079;SDS011;6606;49.154;9.280;2023-03-12T06:51:47;8.97;;;6.50;;
13079;SDS011;6606;49.154;9.280;2023-03-12T06:54:29;7.73;;;5.17;;
13079;SDS011;6606;49.154;9.280;2023-03-12T06:57:11;9.73;;;5.57;;
13079;SDS011;6606;49.154;9.280;2023-03-12T06:59:52;7.00;;;4.50;;
13079;SDS011;6606;49.154;9.280;2023-03-12T07:02:34;5.63;;;4.27;;
13079;SDS011;6606;49.154;9.280;2023-03-12T07:05:17;6.17;;;4.07;;
13079;SDS011;6606;49.154;9.280;2023-03-12T07:07:59;10.63;;;4.73;;
13079;SDS011;6606;49.154;9.280;2023-03-12T07:10:41;18.80;;;10.13;;
13079;SDS011;6606;49.154;9.280;2023-03-12T07:13:26;18.57;;;9.17;;
13079;SDS011;6606;49.154;9.280;2023-03-12T07:16:08;9.87;;;5.40;;
13079;SDS011;6606;49.154;9.280;2023-03-12T07:18:50;10.77;;;4.97;;
13079;SDS011;6606;49.154;9.280;2023-03-12T07:21:33;8.10;;;4.80;;
13079;SDS011;6606;49.154;9.280;2023-03-12T07:24:15;7.70;;;4.63;;
13079;SDS011;6606;49.154;9.280;2023-03-12T07:26:57;6.10;;;4.23;;
13079;SDS011;6606;49.154;9.280;2023-03-12T07:29:41;11.10;;;7.20;;
13079;SDS011;6606;49.154;9.280;2023-03-12T07:32:23;10.40;;;5.43;;
13079;SDS011;6606;49.154;9.280;2023-03-12T07:35:05;8.37;;;5.07;;
13079;SDS011;6606;49.154;9.280;2023-03-12T07:37:48;8.07;;;5.97;;
13079;SDS011;6606;49.154;9.280;2023-03-12T07:40:30;9.93;;;5.03;;
13079;SDS011;6606;49.154;9.280;2023-03-12T07:43:12;8.07;;;4.57;;
13079;SDS011;6606;49.154;9.280;2023-03-12T07:45:55;9.13;;;4.20;;
13079;SDS011;6606;49.154;9.280;2023-03-12T07:48:36;10.97;;;4.50;;
13079;SDS011;6606;49.154;9.280;2023-03-12T07:51:18;5.53;;;3.73;;
13079;SDS011;6606;49.154;9.280;2023-03-12T07:54:02;6.67;;;4.10;;
13079;SDS011;6606;49.154;9.280;2023-03-12T07:56:43;8.13;;;4.20;;
13079;SDS011;6606;49.154;9.280;2023-03-12T07:59:25;10.60;;;4.47;;
13079;SDS011;6606;49.154;9.280;2023-03-12T08:02:08;5.77;;;3.87;;
13079;SDS011;6606;49.154;9.280;2023-03-12T08:04:50;8.13;;;4.80;;
13079;SDS011;6606;49.154;9.280;2023-03-12T08:07:32;12.27;;;5.37;;
13079;SDS011;6606;49.154;9.280;2023-03-12T08:10:16;9.67;;;5.27;;
13079;SDS011;6606;49.154;9.280;2023-03-12T08:12:58;10.30;;;5.40;;
13079;SDS011;6606;49.154;9.280;2023-03-12T08:15:40;8.57;;;4.80;;
13079;SDS011;6606;49.154;9.280;2023-03-12T08:18:23;8.03;;;5.60;;
13079;SDS011;6606;49.154;9.280;2023-03-12T08:21:05;8.30;;;5.30;;
13079;SDS011;6606;49.154;9.280;2023-03-12T08:23:50;9.23;;;5.17;;
13079;SDS011;6606;49.154;9.280;2023-03-12T08:26:33;8.43;;;4.10;;
13079;SDS011;6606;49.154;9.280;2023-03-12T08:29:15;10.67;;;4.70;;
13079;SDS011;6606;49.154;9.280;2023-03-12T08:31:57;10.67;;;4.67;;
13079;SDS011;6606;49.154;9.280;2023-03-12T08:34:39;10.30;;;5.27;;
13079;SDS011;6606;49.154;9.280;2023-03-12T08:37:21;7.40;;;4.73;;
13079;SDS011;6606;49.154;9.280;2023-03-12T08:40:03;8.67;;;4.47;;
13079;SDS011;6606;49.154;9.280;2023-03-12T08:42:53;7.50;;;4.90;;
13079;SDS011;6606;49.154;9.280;2023-03-12T08:45:35;7.43;;;4.83;;
13079;SDS011;6606;49.154;9.280;2023-03-12T08:48:17;9.73;;;5.20;;
13079;SDS011;6606;49.154;9.280;2023-03-12T08:50:59;7.30;;;4.57;;
13079;SDS011;6606;49.154;9.280;2023-03-12T08:53:43;8.63;;;4.50;;
13079;SDS011;6606;49.154;9.280;2023-03-12T08:56:25;9.47;;;4.17;;
13079;SDS011;6606;49.154;9.280;2023-03-12T08:59:08;7.50;;;3.90;;
13079;SDS011;6606;49.154;9.280;2023-03-12T09:01:50;9.10;;;4.80;;
13079;SDS011;6606;49.154;9.280;2023-03-12T09:04:32;9.77;;;5.17;;
13079;SDS011;6606;49.154;9.280;2023-03-12T09:07:13;8.50;;;4.63;;
13079;SDS011;6606;49.154;9.280;2023-03-12T09:09:57;8.13;;;4.30;;
13079;SDS011;6606;49.154;9.280;2023-03-12T09:12:39;10.17;;;4.97;;
13079;SDS011;6606;49.154;9.280;2023-03-12T09:15:22;7.80;;;4.70;;
13079;SDS011;6606;49.154;9.280;2023-03-12T09:18:04;10.13;;;5.93;;
13079;SDS011;6606;49.154;9.280;2023-03-12T09:20:46;9.47;;;5.53;;
13079;SDS011;6606;49.154;9.280;2023-03-12T09:23:27;10.87;;;5.73;;
13079;SDS011;6606;49.154;9.280;2023-03-12T09:26:10;11.03;;;5.70;;
13079;SDS011;6606;49.154;9.280;2023-03-12T09:28:52;8.20;;;4.97;;
13079;SDS011;6606;49.154;9.280;2023-03-12T09:31:36;8.13;;;4.77;;
13079;SDS011;6606;49.154;9.280;2023-03-12T09:34:17;9.00;;;5.00;;
13079;SDS011;6606;49.154;9.280;2023-03-12T09:36:59;9.00;;;5.53;;
13079;SDS011;6606;49.154;9.280;2023-03-12T09:39:41;7.23;;;4.60;;
13079;SDS011;6606;49.154;9.280;2023-03-12T09:42:24;6.17;;;4.60;;
13079;SDS011;6606;49.154;9.280;2023-03-12T09:45:12;9.17;;;4.77;;
13079;SDS011;6606;49.154;9.280;2023-03-12T09:48:00;8.60;;;4.87;;
13079;SDS011;6606;49.154;9.280;2023-03-12T09:50:45;7.27;;;4.37;;
13079;SDS011;6606;49.154;9.280;2023-03-12T09:53:30;5.83;;;4.90;;
13079;SDS011;6606;49.154;9.280;2023-03-12T09:56:20;7.50;;;5.63;;
13079;SDS011;6606;49.154;9.280;2023-03-12T09:59:03;8.03;;;5.73;;
13079;SDS011;6606;49.154;9.280;2023-03-12T10:01:50;7.37;;;4.80;;
13079;SDS011;6606;49.154;9.280;2023-03-12T10:04:41;6.60;;;5.07;;
13079;SDS011;6606;49.154;9.280;2023-03-12T10:07:28;7.67;;;5.10;;
13079;SDS011;6606;49.154;9.280;2023-03-12T10:10:19;8.93;;;5.67;;
13079;SDS011;6606;49.154;9.280;2023-03-12T10:13:17;7.27;;;4.67;;
13079;SDS011;6606;49.154;9.280;2023-03-12T10:16:15;7.97;;;5.90;;
13079;SDS011;6606;49.154;9.280;2023-03-12T10:19:13;7.53;;;5.10;;
13079;SDS011;6606;49.154;9.280;2023-03-12T10:22:12;8.43;;;5.87;;
13079;SDS011;6606;49.154;9.280;2023-03-12T10:25:04;5.77;;;4.93;;
13079;SDS011;6606;49.154;9.280;2023-03-12T10:27:57;8.03;;;5.37;;
13079;SDS011;6606;49.154;9.280;2023-03-12T10:30:46;8.83;;;5.30;;
13079;SDS011;6606;49.154;9.280;2023-03-12T10:33:37;10.37;;;6.27;;
13079;SDS011;6606;49.154;9.280;2023-03-12T10:36:27;11.37;;;6.57;;
13079;SDS011;6606;49.154;9.280;2023-03-12T10:39:16;7.47;;;5.57;;
13079;SDS011;6606;49.154;9.280;2023-03-12T10:41:59;8.90;;;6.70;;
13079;SDS011;6606;49.154;9.280;2023-03-12T10:44:41;13.17;;;7.10;;
13079;SDS011;6606;49.154;9.280;2023-03-12T10:47:29;10.80;;;6.90;;
13079;SDS011;6606;49.154;9.280;2023-03-12T10:50:16;9.53;;;6.13;;
13079;SDS011;6606;49.154;9.280;2023-03-12T10:53:10;8.97;;;6.40;;
13079;SDS011;6606;49.154;9.280;2023-03-12T10:56:01;9.43;;;5.90;;
13079;SDS011;6606;49.154;9.280;2023-03-12T10:58:45;6.27;;;5.30;;
13079;SDS011;6606;49.154;9.280;2023-03-12T11:01:29;9.13;;;6.30;;
13079;SDS011;6606;49.154;9.280;2023-03-12T11:04:13;9.20;;;6.40;;
13079;SDS011;6606;49.154;9.280;2023-03-12T11:07:18;7.77;;;6.13;;
13079;SDS011;6606;49.154;9.280;2023-03-12T11:10:16;8.63;;;5.83;;
13079;SDS011;6606;49.154;9.280;2023-03-12T11:13:04;7.73;;;5.70;;
13079;SDS011;6606;49.154;9.280;2023-03-12T11:16:01;8.07;;;5.67;;
13079;SDS011;6606;49.154;9.280;2023-03-12T11:19:04;6.73;;;5.60;;
13079;SDS011;6606;49.154;9.280;2023-03-12T11:21:53;8.07;;;5.27;;
13079;SDS011;6606;49.154;9.280;2023-03-12T11:24:38;8.40;;;5.53;;
13079;SDS011;6606;49.154;9.280;2023-03-12T11:27:36;7.53;;;5.70;;
13079;SDS011;6606;49.154;9.280;2023-03-12T11:30:25;8.73;;;5.93;;
13079;SDS011;6606;49.154;9.280;2023-03-12T11:33:13;7.40;;;5.40;;
13079;SDS011;6606;49.154;9.280;2023-03-12T11:35:57;6.90;;;5.07;;
13079;SDS011;6606;49.154;9.280;2023-03-12T11:38:50;7.10;;;6.40;;
13079;SDS011;6606;49.154;9.280;2023-03-12T11:41:43;8.53;;;6.63;;
13079;SDS011;6606;49.154;9.280;2023-03-12T11:44:35;7.93;;;6.30;;
13079;SDS011;6606;49.154;9.280;2023-03-12T11:47:31;7.37;;;6.03;;
13079;SDS011;6606;49.154;9.280;2023-03-12T11:50:25;7.37;;;5.80;;
13079;SDS011;6606;49.154;9.280;2023-03-12T11:53:20;10.47;;;6.60;;
13079;SDS011;6606;49.154;9.280;2023-03-12T11:56:14;7.77;;;5.93;;
13079;SDS011;6606;49.154;9.280;2023-03-12T11:59:11;8.67;;;6.27;;
13079;SDS011;6606;49.154;9.280;2023-03-12T12:02:09;8.10;;;6.13;;
13079;SDS011;6606;49.154;9.280;2023-03-12T12:05:06;11.53;;;6.17;;
13079;SDS011;6606;49.154;9.280;2023-03-12T12:08:02;7.33;;;5.80;;
13079;SDS011;6606;49.154;9.280;2023-03-12T12:10:53;7.93;;;5.67;;
13079;SDS011;6606;49.154;9.280;2023-03-12T12:13:44;7.57;;;5.83;;
13079;SDS011;6606;49.154;9.280;2023-03-12T12:19:44;8.43;;;5.27;;
13079;SDS011;6606;49.154;9.280;2023-03-12T12:22:40;8.70;;;5.30;;
13079;SDS011;6606;49.154;9.280;2023-03-12T12:25:33;7.80;;;5.60;;
13079;SDS011;6606;49.154;9.280;2023-03-12T12:28:47;8.57;;;5.30;;
13079;SDS011;6606;49.154;9.280;2023-03-12T12:31:44;8.70;;;5.97;;
13079;SDS011;6606;49.154;9.280;2023-03-12T12:37:47;12.57;;;5.93;;
13079;SDS011;6606;49.154;9.280;2023-03-12T12:40:37;7.60;;;6.13;;
13079;SDS011;6606;49.154;9.280;2023-03-12T12:43:24;8.63;;;6.00;;
13079;SDS011;6606;49.154;9.280;2023-03-12T12:46:08;7.17;;;5.80;;
13079;SDS011;6606;49.154;9.280;2023-03-12T12:48:58;10.57;;;6.30;;
13079;SDS011;6606;49.154;9.280;2023-03-12T12:51:43;11.43;;;6.87;;
13079;SDS011;6606;49.154;9.280;2023-03-12T12:54:32;11.07;;;6.40;;
13079;SDS011;6606;49.154;9.280;2023-03-12T12:57:22;8.10;;;5.90;;
13079;SDS011;6606;49.154;9.280;2023-03-12T13:00:13;8.87;;;6.17;;
13079;SDS011;6606;49.154;9.280;2023-03-12T13:03:04;10.07;;;5.97;;
13079;SDS011;6606;49.154;9.280;2023-03-12T13:05:47;8.47;;;5.80;;
13079;SDS011;6606;49.154;9.280;2023-03-12T13:13:09;8.97;;;5.80;;
13079;SDS011;6606;49.154;9.280;2023-03-12T13:16:17;15.13;;;6.60;;
13079;SDS011;6606;49.154;9.280;2023-03-12T13:19:20;9.47;;;5.90;;
13079;SDS011;6606;49.154;9.280;2023-03-12T13:22:07;9.53;;;6.13;;
13079;SDS011;6606;49.154;9.280;2023-03-12T13:24:59;10.43;;;6.27;;
13079;SDS011;6606;49.154;9.280;2023-03-12T13:27:55;10.40;;;6.10;;
13079;SDS011;6606;49.154;9.280;2023-03-12T13:30:48;8.50;;;5.20;;
13079;SDS011;6606;49.154;9.280;2023-03-12T13:36:32;8.83;;;5.23;;
13079;SDS011;6606;49.154;9.280;2023-03-12T13:39:18;8.13;;;4.43;;
13079;SDS011;6606;49.154;9.280;2023-03-12T13:42:25;6.90;;;4.80;;
13079;SDS011;6606;49.154;9.280;2023-03-12T13:45:23;11.67;;;5.30;;
13079;SDS011;6606;49.154;9.280;2023-03-12T13:48:13;9.73;;;5.13;;
13079;SDS011;6606;49.154;9.280;2023-03-12T13:50:58;7.73;;;4.10;;
13079;SDS011;6606;49.154;9.280;2023-03-12T13:53:46;6.00;;;3.53;;
13079;SDS011;6606;49.154;9.280;2023-03-12T13:56:30;6.83;;;3.17;;
13079;SDS011;6606;49.154;9.280;2023-03-12T13:59:14;7.10;;;3.20;;
13079;SDS011;6606;49.154;9.280;2023-03-12T14:02:01;7.20;;;3.03;;
13079;SDS011;6606;49.154;9.280;2023-03-12T14:04:47;6.67;;;3.13;;
13079;SDS011;6606;49.154;9.280;2023-03-12T14:07:38;7.47;;;3.00;;
13079;SDS011;6606;49.154;9.280;2023-03-12T14:10:32;6.87;;;2.60;;
13079;SDS011;6606;49.154;9.280;2023-03-12T14:13:27;8.73;;;3.30;;
13079;SDS011;6606;49.154;9.280;2023-03-12T14:16:20;7.57;;;2.90;;
13079;SDS011;6606;49.154;9.280;2023-03-12T14:19:08;6.70;;;3.03;;
13079;SDS011;6606;49.154;9.280;2023-03-12T14:21:55;8.40;;;3.10;;
13079;SDS011;6606;49.154;9.280;2023-03-12T14:24:40;8.03;;;2.67;;
13079;SDS011;6606;49.154;9.280;2023-03-12T14:27:30;8.97;;;3.20;;
13079;SDS011;6606;49.154;9.280;2023-03-12T14:30:15;8.27;;;3.30;;
13079;SDS011;6606;49.154;9.280;2023-03-12T14:33:05;9.03;;;3.00;;
13079;SDS011;6606;49.154;9.280;2023-03-12T14:35:49;7.00;;;2.50;;
13079;SDS011;6606;49.154;9.280;2023-03-12T14:38:37;7.03;;;2.70;;
13079;SDS011;6606;49.154;9.280;2023-03-12T14:41:24;7.87;;;2.70;;
13079;SDS011;6606;49.154;9.280;2023-03-12T14:44:17;9.90;;;3.80;;
13079;SDS011;6606;49.154;9.280;2023-03-12T14:47:02;8.60;;;3.00;;
13079;SDS011;6606;49.154;9.280;2023-03-12T14:49:49;7.73;;;2.90;;
13079;SDS011;6606;49.154;9.280;2023-03-12T14:52:31;14.47;;;3.10;;
13079;SDS011;6606;49.154;9.280;2023-03-12T14:55:15;13.57;;;3.20;;
13079;SDS011;6606;49.154;9.280;2023-03-12T14:58:02;10.10;;;3.07;;
13079;SDS011;6606;49.154;9.280;2023-03-12T15:00:52;10.13;;;3.07;;
13079;SDS011;6606;49.154;9.280;2023-03-12T15:03:41;10.37;;;3.03;;
13079;SDS011;6606;49.154;9.280;2023-03-12T15:06:27;9.00;;;3.00;;
13079;SDS011;6606;49.154;9.280;2023-03-12T15:09:12;9.60;;;3.07;;
13079;SDS011;6606;49.154;9.280;2023-03-12T15:11:59;9.37;;;3.10;;
13079;SDS011;6606;49.154;9.280;2023-03-12T15:14:44;8.07;;;2.90;;
13079;SDS011;6606;49.154;9.280;2023-03-12T15:17:26;10.90;;;2.80;;
13079;SDS011;6606;49.154;9.280;2023-03-12T15:20:13;10.43;;;3.00;;
13079;SDS011;6606;49.154;9.280;2023-03-12T15:22:56;10.87;;;2.80;;
13079;SDS011;6606;49.154;9.280;2023-03-12T15:25:38;13.23;;;3.33;;
13079;SDS011;6606;49.154;9.280;2023-03-12T15:28:26;11.90;;;3.30;;
13079;SDS011;6606;49.154;9.280;2023-03-12T15:31:10;6.73;;;3.20;;
13079;SDS011;6606;49.154;9.280;2023-03-12T15:33:58;10.37;;;3.97;;
13079;SDS011;6606;49.154;9.280;2023-03-12T15:36:45;12.10;;;3.53;;
13079;SDS011;6606;49.154;9.280;2023-03-12T15:39:29;10.30;;;3.87;;
13079;SDS011;6606;49.154;9.280;2023-03-12T15:42:14;9.50;;;3.10;;
13079;SDS011;6606;49.154;9.280;2023-03-12T15:45:00;10.17;;;2.83;;
13079;SDS011;6606;49.154;9.280;2023-03-12T15:47:43;11.30;;;3.50;;
13079;SDS011;6606;49.154;9.280;2023-03-12T15:50:26;9.50;;;3.13;;
13079;SDS011;6606;49.154;9.280;2023-03-12T15:53:23;11.90;;;3.80;;
13079;SDS011;6606;49.154;9.280;2023-03-12T15:56:19;10.50;;;3.47;;
13079;SDS011;6606;49.154;9.280;2023-03-12T15:59:04;10.27;;;2.87;;
13079;SDS011;6606;49.154;9.280;2023-03-12T16:02:02;12.33;;;3.10;;
13079;SDS011;6606;49.154;9.280;2023-03-12T16:04:44;13.10;;;3.47;;
13079;SDS011;6606;49.154;9.280;2023-03-12T16:07:25;10.63;;;3.17;;
13079;SDS011;6606;49.154;9.280;2023-03-12T16:10:08;13.80;;;3.20;;
13079;SDS011;6606;49.154;9.280;2023-03-12T16:12:57;8.63;;;2.67;;
13079;SDS011;6606;49.154;9.280;2023-03-12T16:15:42;12.33;;;3.63;;
13079;SDS011;6606;49.154;9.280;2023-03-12T16:18:25;10.30;;;3.10;;
13079;SDS011;6606;49.154;9.280;2023-03-12T16:21:07;8.70;;;2.97;;
13079;SDS011;6606;49.154;9.280;2023-03-12T16:23:50;13.43;;;3.70;;
13079;SDS011;6606;49.154;9.280;2023-03-12T16:26:32;11.17;;;3.73;;
13079;SDS011;6606;49.154;9.280;2023-03-12T16:29:15;12.73;;;3.30;;
13079;SDS011;6606;49.154;9.280;2023-03-12T16:31:58;13.40;;;3.37;;
13079;SDS011;6606;49.154;9.280;2023-03-12T16:34:42;12.27;;;3.37;;
13079;SDS011;6606;49.154;9.280;2023-03-12T16:37:25;13.10;;;3.23;;
13079;SDS011;6606;49.154;9.280;2023-03-12T16:40:07;13.37;;;3.67;;
13079;SDS011;6606;49.154;9.280;2023-03-12T16:42:53;11.63;;;3.53;;
13079;SDS011;6606;49.154;9.280;2023-03-12T16:45:35;11.67;;;3.40;;
13079;SDS011;6606;49.154;9.280;2023-03-12T16:48:18;12.47;;;3.47;;
13079;SDS011;6606;49.154;9.280;2023-03-12T16:51:04;11.53;;;3.23;;
13079;SDS011;6606;49.154;9.280;2023-03-12T16:53:55;12.33;;;3.47;;
13079;SDS011;6606;49.154;9.280;2023-03-12T16:56:40;12.27;;;3.70;;
13079;SDS011;6606;49.154;9.280;2023-03-12T16:59:24;12.50;;;3.60;;
13079;SDS011;6606;49.154;9.280;2023-03-12T17:02:13;11.97;;;3.50;;
13079;SDS011;6606;49.154;9.280;2023-03-12T17:04:56;10.30;;;2.77;;